sensor_id;sensor_type;location;lat;lon;timestamp;P1;durP1;ratioP1;P2;durP2;ratioP2
51332;SDS011;37417;48.118;11.734;2023-05-07T00:02:19;0.95;;;0.93;;
51332;SDS011;37417;48.118;11.734;2023-05-07T00:05:05;2.28;;;1.17;;
51332;SDS011;37417;48.118;11.734;2023-05-07T00:07:51;2.15;;;1.48;;
51332;SDS011;37417;48.118;11.734;2023-05-07T00:10:38;1.25;;;0.85;;
51332;SDS011;37417;48.118;11.734;2023-05-07T00:13:23;2.25;;;1.27;;
51332;SDS011;37417;48.118;11.734;2023-05-07T00:16:09;1.63;;;1.40;;
51332;SDS011;37417;48.118;11.734;2023-05-07T00:18:54;1.45;;;1.08;;
51332;SDS011;37417;48.118;11.734;2023-05-07T00:21:40;1.52;;;1.42;;
51332;SDS011;37417;48.118;11.734;2023-05-07T00:24:26;1.33;;;1.10;;
51332;SDS011;37417;48.118;11.734;2023-05-07T00:27:11;1.55;;;1.35;;
51332;SDS011;37417;48.118;11.734;2023-05-07T00:29:57;1.60;;;1.50;;
51332;SDS011;37417;48.118;11.734;2023-05-07T00:32:43;1.08;;;0.95;;
51332;SDS011;37417;48.118;11.734;2023-05-07T00:35:30;1.52;;;1.17;;
51332;SDS011;37417;48.118;11.734;2023-05-07T00:38:16;1.55;;;1.33;;
51332;SDS011;37417;48.118;11.734;2023-05-07T00:41:01;1.27;;;1.15;;
51332;SDS011;37417;48.118;11.734;2023-05-07T00:43:47;1.33;;;1.08;;
51332;SDS011;37417;48.118;11.734;2023-05-07T00:46:33;1.20;;;1.10;;
51332;SDS011;37417;48.118;11.734;2023-05-07T00:49:19;1.05;;;0.98;;
51332;SDS011;37417;48.118;11.734;2023-05-07T00:52:09;2.13;;;1.40;;
51332;SDS011;37417;48.118;11.734;2023-05-07T00:54:59;1.40;;;1.30;;
51332;SDS011;37417;48.118;11.734;2023-05-07T00:57:49;2.13;;;1.85;;
51332;SDS011;37417;48.118;11.734;2023-05-07T01:00:36;2.30;;;1.98;;
51332;SDS011;37417;48.118;11.734;2023-05-07T01:03:22;1.88;;;1.60;;
51332;SDS011;37417;48.118;11.734;2023-05-07T01:06:07;2.80;;;1.55;;
51332;SDS011;37417;48.118;11.734;2023-05-07T01:08:57;1.48;;;1.38;;
51332;SDS011;37417;48.118;11.734;2023-05-07T01:11:43;1.70;;;1.23;;
51332;SDS011;37417;48.118;11.734;2023-05-07T01:14:29;1.35;;;1.10;;
51332;SDS011;37417;48.118;11.734;2023-05-07T01:17:16;1.33;;;1.17;;
51332;SDS011;37417;48.118;11.734;2023-05-07T01:20:02;1.25;;;1.15;;
51332;SDS011;37417;48.118;11.734;2023-05-07T01:22:50;1.33;;;1.23;;
51332;SDS011;37417;48.118;11.734;2023-05-07T01:25:36;1.50;;;1.40;;
51332;SDS011;37417;48.118;11.734;2023-05-07T01:28:21;4.47;;;1.70;;
51332;SDS011;37417;48.118;11.734;2023-05-07T01:31:07;3.30;;;1.55;;
51332;SDS011;37417;48.118;11.734;2023-05-07T01:33:54;3.08;;;1.38;;
51332;SDS011;37417;48.118;11.734;2023-05-07T01:36:42;2.42;;;1.50;;
51332;SDS011;37417;48.118;11.734;2023-05-07T01:39:28;2.55;;;1.67;;
51332;SDS011;37417;48.118;11.734;2023-05-07T01:42:15;0.93;;;0.82;;
51332;SDS011;37417;48.118;11.734;2023-05-07T01:45:00;1.33;;;0.93;;
51332;SDS011;37417;48.118;11.734;2023-05-07T01:47:46;3.90;;;1.73;;
51332;SDS011;37417;48.118;11.734;2023-05-07T01:50:32;1.50;;;1.40;;
51332;SDS011;37417;48.118;11.734;2023-05-07T01:53:19;1.35;;;1.25;;
51332;SDS011;37417;48.118;11.734;2023-05-07T01:56:04;3.78;;;1.48;;
51332;SDS011;37417;48.118;11.734;2023-05-07T01:58:50;2.22;;;2.03;;
51332;SDS011;37417;48.118;11.734;2023-05-07T02:01:37;1.52;;;1.42;;
51332;SDS011;37417;48.118;11.734;2023-05-07T02:04:22;1.27;;;1.00;;
51332;SDS011;37417;48.118;11.734;2023-05-07T02:07:08;1.67;;;1.38;;
51332;SDS011;37417;48.118;11.734;2023-05-07T02:09:54;1.75;;;1.00;;
51332;SDS011;37417;48.118;11.734;2023-05-07T02:12:40;1.73;;;1.63;;
51332;SDS011;37417;48.118;11.734;2023-05-07T02:15:26;1.75;;;1.27;;
51332;SDS011;37417;48.118;11.734;2023-05-07T02:18:12;2.33;;;2.15;;
51332;SDS011;37417;48.118;11.734;2023-05-07T02:20:57;1.23;;;1.13;;
51332;SDS011;37417;48.118;11.734;2023-05-07T02:23:43;3.72;;;2.67;;
51332;SDS011;37417;48.118;11.734;2023-05-07T02:26:28;1.13;;;1.05;;
51332;SDS011;37417;48.118;11.734;2023-05-07T02:29:14;1.85;;;1.60;;
51332;SDS011;37417;48.118;11.734;2023-05-07T02:32:00;1.55;;;1.45;;
51332;SDS011;37417;48.118;11.734;2023-05-07T02:34:45;1.30;;;1.17;;
51332;SDS011;37417;48.118;11.734;2023-05-07T02:37:31;1.85;;;1.73;;
51332;SDS011;37417;48.118;11.734;2023-05-07T02:40:17;2.17;;;1.98;;
51332;SDS011;37417;48.118;11.734;2023-05-07T02:43:02;1.25;;;1.20;;
51332;SDS011;37417;48.118;11.734;2023-05-07T02:45:48;0.60;;;0.57;;
51332;SDS011;37417;48.118;11.734;2023-05-07T02:48:34;2.08;;;1.30;;
51332;SDS011;37417;48.118;11.734;2023-05-07T02:51:20;1.48;;;1.38;;
51332;SDS011;37417;48.118;11.734;2023-05-07T02:54:07;2.55;;;1.98;;
51332;SDS011;37417;48.118;11.734;2023-05-07T02:56:52;1.55;;;1.45;;
51332;SDS011;37417;48.118;11.734;2023-05-07T02:59:38;1.67;;;1.45;;
51332;SDS011;37417;48.118;11.734;2023-05-07T03:02:23;1.63;;;1.52;;
51332;SDS011;37417;48.118;11.734;2023-05-07T03:05:10;1.50;;;1.40;;
51332;SDS011;37417;48.118;11.734;2023-05-07T03:07:56;1.67;;;1.20;;
51332;SDS011;37417;48.118;11.734;2023-05-07T03:10:41;1.30;;;1.20;;
51332;SDS011;37417;48.118;11.734;2023-05-07T03:13:27;1.52;;;1.42;;
51332;SDS011;37417;48.118;11.734;2023-05-07T03:16:13;1.45;;;1.40;;
51332;SDS011;37417;48.118;11.734;2023-05-07T03:18:58;1.70;;;1.60;;
51332;SDS011;37417;48.118;11.734;2023-05-07T03:21:44;1.15;;;1.08;;
51332;SDS011;37417;48.118;11.734;2023-05-07T03:24:30;2.95;;;1.65;;
51332;SDS011;37417;48.118;11.734;2023-05-07T03:27:16;2.53;;;1.90;;
51332;SDS011;37417;48.118;11.734;2023-05-07T03:30:01;2.08;;;1.88;;
51332;SDS011;37417;48.118;11.734;2023-05-07T03:32:47;2.00;;;1.85;;
51332;SDS011;37417;48.118;11.734;2023-05-07T03:35:33;1.42;;;1.27;;
51332;SDS011;37417;48.118;11.734;2023-05-07T03:38:19;2.42;;;1.80;;
51332;SDS011;37417;48.118;11.734;2023-05-07T03:41:04;2.03;;;1.48;;
51332;SDS011;37417;48.118;11.734;2023-05-07T03:43:50;2.40;;;1.88;;
51332;SDS011;37417;48.118;11.734;2023-05-07T03:46:35;1.38;;;1.27;;
51332;SDS011;37417;48.118;11.734;2023-05-07T03:49:21;1.50;;;1.25;;
51332;SDS011;37417;48.118;11.734;2023-05-07T03:52:07;1.58;;;1.48;;
51332;SDS011;37417;48.118;11.734;2023-05-07T03:54:52;1.25;;;1.15;;
51332;SDS011;37417;48.118;11.734;2023-05-07T03:57:39;2.03;;;1.63;;
51332;SDS011;37417;48.118;11.734;2023-05-07T04:00:24;1.73;;;1.40;;
51332;SDS011;37417;48.118;11.734;2023-05-07T04:03:10;1.38;;;1.20;;
51332;SDS011;37417;48.118;11.734;2023-05-07T04:05:55;1.35;;;1.05;;
51332;SDS011;37417;48.118;11.734;2023-05-07T04:08:41;1.50;;;1.40;;
51332;SDS011;37417;48.118;11.734;2023-05-07T04:11:27;2.03;;;1.30;;
51332;SDS011;37417;48.118;11.734;2023-05-07T04:14:12;1.48;;;1.38;;
51332;SDS011;37417;48.118;11.734;2023-05-07T04:16:58;1.50;;;1.38;;
51332;SDS011;37417;48.118;11.734;2023-05-07T04:19:44;1.40;;;1.17;;
51332;SDS011;37417;48.118;11.734;2023-05-07T04:22:30;1.63;;;1.50;;
51332;SDS011;37417;48.118;11.734;2023-05-07T04:25:16;3.25;;;1.88;;
51332;SDS011;37417;48.118;11.734;2023-05-07T04:28:01;1.17;;;1.10;;
51332;SDS011;37417;48.118;11.734;2023-05-07T04:30:47;0.90;;;0.90;;
51332;SDS011;37417;48.118;11.734;2023-05-07T04:33:33;1.33;;;1.08;;
51332;SDS011;37417;48.118;11.734;2023-05-07T04:36:19;2.22;;;1.13;;
51332;SDS011;37417;48.118;11.734;2023-05-07T04:39:04;1.08;;;1.08;;
51332;SDS011;37417;48.118;11.734;2023-05-07T04:41:50;1.70;;;1.60;;
51332;SDS011;37417;48.118;11.734;2023-05-07T04:44:35;1.13;;;1.02;;
51332;SDS011;37417;48.118;11.734;2023-05-07T04:47:22;1.45;;;1.30;;
51332;SDS011;37417;48.118;11.734;2023-05-07T04:50:08;1.75;;;1.42;;
51332;SDS011;37417;48.118;11.734;2023-05-07T04:52:54;1.08;;;1.00;;
51332;SDS011;37417;48.118;11.734;2023-05-07T04:55:40;1.80;;;1.27;;
51332;SDS011;37417;48.118;11.734;2023-05-07T04:58:25;1.77;;;1.67;;
51332;SDS011;37417;48.118;11.734;2023-05-07T05:01:12;2.22;;;1.80;;
51332;SDS011;37417;48.118;11.734;2023-05-07T05:03:58;1.60;;;1.50;;
51332;SDS011;37417;48.118;11.734;2023-05-07T05:06:45;1.00;;;1.00;;
51332;SDS011;37417;48.118;11.734;2023-05-07T05:09:31;1.92;;;1.75;;
51332;SDS011;37417;48.118;11.734;2023-05-07T05:12:16;1.30;;;1.20;;
51332;SDS011;37417;48.118;11.734;2023-05-07T05:15:02;1.70;;;1.60;;
51332;SDS011;37417;48.118;11.734;2023-05-07T05:17:48;1.20;;;1.08;;
51332;SDS011;37417;48.118;11.734;2023-05-07T05:20:33;1.65;;;1.55;;
51332;SDS011;37417;48.118;11.734;2023-05-07T05:23:19;4.57;;;2.50;;
51332;SDS011;37417;48.118;11.734;2023-05-07T05:26:05;2.47;;;2.28;;
51332;SDS011;37417;48.118;11.734;2023-05-07T05:28:51;3.40;;;2.35;;
51332;SDS011;37417;48.118;11.734;2023-05-07T05:31:36;3.97;;;3.22;;
51332;SDS011;37417;48.118;11.734;2023-05-07T05:34:22;3.33;;;2.88;;
51332;SDS011;37417;48.118;11.734;2023-05-07T05:37:08;2.35;;;2.10;;
51332;SDS011;37417;48.118;11.734;2023-05-07T05:39:53;0.85;;;0.85;;
51332;SDS011;37417;48.118;11.734;2023-05-07T05:42:40;1.10;;;1.00;;
51332;SDS011;37417;48.118;11.734;2023-05-07T05:45:25;1.63;;;1.40;;
51332;SDS011;37417;48.118;11.734;2023-05-07T05:48:11;1.20;;;1.05;;
51332;SDS011;37417;48.118;11.734;2023-05-07T05:50:57;1.50;;;1.02;;
51332;SDS011;37417;48.118;11.734;2023-05-07T05:53:42;1.52;;;1.35;;
51332;SDS011;37417;48.118;11.734;2023-05-07T05:56:28;1.80;;;1.33;;
51332;SDS011;37417;48.118;11.734;2023-05-07T05:59:14;1.23;;;1.13;;
51332;SDS011;37417;48.118;11.734;2023-05-07T06:01:59;1.88;;;1.10;;
51332;SDS011;37417;48.118;11.734;2023-05-07T06:04:45;1.38;;;1.27;;
51332;SDS011;37417;48.118;11.734;2023-05-07T06:07:31;1.60;;;1.50;;
51332;SDS011;37417;48.118;11.734;2023-05-07T06:10:16;1.42;;;1.27;;
51332;SDS011;37417;48.118;11.734;2023-05-07T06:13:02;1.20;;;1.10;;
51332;SDS011;37417;48.118;11.734;2023-05-07T06:15:48;2.25;;;1.35;;
51332;SDS011;37417;48.118;11.734;2023-05-07T06:18:34;1.73;;;1.20;;
51332;SDS011;37417;48.118;11.734;2023-05-07T06:21:21;4.00;;;1.17;;
51332;SDS011;37417;48.118;11.734;2023-05-07T06:24:07;1.23;;;1.13;;
51332;SDS011;37417;48.118;11.734;2023-05-07T06:26:52;1.00;;;0.90;;
51332;SDS011;37417;48.118;11.734;2023-05-07T06:29:38;0.70;;;0.70;;
51332;SDS011;37417;48.118;11.734;2023-05-07T06:32:24;0.60;;;0.60;;
51332;SDS011;37417;48.118;11.734;2023-05-07T06:35:09;0.80;;;0.80;;
51332;SDS011;37417;48.118;11.734;2023-05-07T06:37:55;0.73;;;0.70;;
51332;SDS011;37417;48.118;11.734;2023-05-07T06:40:41;0.73;;;0.73;;
51332;SDS011;37417;48.118;11.734;2023-05-07T06:43:26;0.77;;;0.77;;
51332;SDS011;37417;48.118;11.734;2023-05-07T06:46:12;1.65;;;0.80;;
51332;SDS011;37417;48.118;11.734;2023-05-07T06:48:58;0.80;;;0.70;;
51332;SDS011;37417;48.118;11.734;2023-05-07T06:51:43;1.00;;;0.90;;
51332;SDS011;37417;48.118;11.734;2023-05-07T06:54:29;0.90;;;0.90;;
51332;SDS011;37417;48.118;11.734;2023-05-07T06:57:15;1.63;;;1.50;;
51332;SDS011;37417;48.118;11.734;2023-05-07T07:00:00;0.73;;;0.73;;
51332;SDS011;37417;48.118;11.734;2023-05-07T07:02:46;0.75;;;0.75;;
51332;SDS011;37417;48.118;11.734;2023-05-07T07:05:32;0.88;;;0.88;;
51332;SDS011;37417;48.118;11.734;2023-05-07T07:08:18;0.70;;;0.70;;
51332;SDS011;37417;48.118;11.734;2023-05-07T07:11:04;0.70;;;0.52;;
51332;SDS011;37417;48.118;11.734;2023-05-07T07:13:50;0.88;;;0.70;;
51332;SDS011;37417;48.118;11.734;2023-05-07T07:16:36;1.30;;;0.80;;
51332;SDS011;37417;48.118;11.734;2023-05-07T07:19:21;0.40;;;0.40;;
51332;SDS011;37417;48.118;11.734;2023-05-07T07:22:07;2.63;;;0.63;;
51332;SDS011;37417;48.118;11.734;2023-05-07T07:24:53;0.80;;;0.73;;
51332;SDS011;37417;48.118;11.734;2023-05-07T07:27:38;0.98;;;0.98;;
51332;SDS011;37417;48.118;11.734;2023-05-07T07:30:25;0.40;;;0.40;;
51332;SDS011;37417;48.118;11.734;2023-05-07T07:33:11;1.90;;;0.57;;
51332;SDS011;37417;48.118;11.734;2023-05-07T07:35:57;0.60;;;0.60;;
51332;SDS011;37417;48.118;11.734;2023-05-07T07:38:42;0.75;;;0.60;;
51332;SDS011;37417;48.118;11.734;2023-05-07T07:41:28;0.63;;;0.60;;
51332;SDS011;37417;48.118;11.734;2023-05-07T07:44:14;1.27;;;0.57;;
51332;SDS011;37417;48.118;11.734;2023-05-07T07:46:59;1.15;;;0.90;;
51332;SDS011;37417;48.118;11.734;2023-05-07T07:49:45;0.70;;;0.70;;
51332;SDS011;37417;48.118;11.734;2023-05-07T07:52:31;1.60;;;0.70;;
51332;SDS011;37417;48.118;11.734;2023-05-07T07:55:19;0.70;;;0.55;;
51332;SDS011;37417;48.118;11.734;2023-05-07T08:00:53;1.10;;;0.75;;
51332;SDS011;37417;48.118;11.734;2023-05-07T08:03:41;3.13;;;1.08;;
51332;SDS011;37417;48.118;11.734;2023-05-07T08:06:26;2.58;;;0.98;;
51332;SDS011;37417;48.118;11.734;2023-05-07T08:09:12;1.00;;;0.85;;
51332;SDS011;37417;48.118;11.734;2023-05-07T08:11:58;1.05;;;0.95;;
51332;SDS011;37417;48.118;11.734;2023-05-07T08:14:43;0.50;;;0.50;;
51332;SDS011;37417;48.118;11.734;2023-05-07T08:17:29;0.70;;;0.55;;
51332;SDS011;37417;48.118;11.734;2023-05-07T08:20:15;0.60;;;0.55;;
51332;SDS011;37417;48.118;11.734;2023-05-07T08:23:00;3.55;;;0.75;;
51332;SDS011;37417;48.118;11.734;2023-05-07T08:25:46;2.10;;;0.65;;
51332;SDS011;37417;48.118;11.734;2023-05-07T08:28:32;0.55;;;0.55;;
51332;SDS011;37417;48.118;11.734;2023-05-07T08:31:17;1.65;;;0.60;;
51332;SDS011;37417;48.118;11.734;2023-05-07T08:34:03;0.55;;;0.47;;
51332;SDS011;37417;48.118;11.734;2023-05-07T08:36:50;0.85;;;0.85;;
51332;SDS011;37417;48.118;11.734;2023-05-07T08:39:35;1.73;;;0.60;;
51332;SDS011;37417;48.118;11.734;2023-05-07T08:42:23;1.08;;;0.60;;
51332;SDS011;37417;48.118;11.734;2023-05-07T08:45:09;0.60;;;0.60;;
51332;SDS011;37417;48.118;11.734;2023-05-07T08:47:58;0.40;;;0.35;;
51332;SDS011;37417;48.118;11.734;2023-05-07T08:50:44;0.60;;;0.60;;
51332;SDS011;37417;48.118;11.734;2023-05-07T08:53:30;1.02;;;0.65;;
51332;SDS011;37417;48.118;11.734;2023-05-07T08:56:16;1.00;;;0.95;;
51332;SDS011;37417;48.118;11.734;2023-05-07T08:59:02;0.50;;;0.50;;
51332;SDS011;37417;48.118;11.734;2023-05-07T09:01:49;0.77;;;0.68;;
51332;SDS011;37417;48.118;11.734;2023-05-07T09:04:34;0.45;;;0.45;;
51332;SDS011;37417;48.118;11.734;2023-05-07T09:07:20;0.50;;;0.50;;
51332;SDS011;37417;48.118;11.734;2023-05-07T09:10:07;0.50;;;0.50;;
51332;SDS011;37417;48.118;11.734;2023-05-07T09:12:53;0.68;;;0.55;;
51332;SDS011;37417;48.118;11.734;2023-05-07T09:15:39;0.57;;;0.50;;
51332;SDS011;37417;48.118;11.734;2023-05-07T09:18:25;0.50;;;0.50;;
51332;SDS011;37417;48.118;11.734;2023-05-07T09:21:11;0.50;;;0.50;;
51332;SDS011;37417;48.118;11.734;2023-05-07T09:24:00;0.40;;;0.40;;
51332;SDS011;37417;48.118;11.734;2023-05-07T09:26:46;0.50;;;0.50;;
51332;SDS011;37417;48.118;11.734;2023-05-07T09:29:32;1.05;;;0.73;;
51332;SDS011;37417;48.118;11.734;2023-05-07T09:32:23;3.67;;;0.57;;
51332;SDS011;37417;48.118;11.734;2023-05-07T09:35:16;0.50;;;0.50;;
51332;SDS011;37417;48.118;11.734;2023-05-07T09:38:03;0.40;;;0.40;;
51332;SDS011;37417;48.118;11.734;2023-05-07T09:40:57;0.73;;;0.68;;
51332;SDS011;37417;48.118;11.734;2023-05-07T09:43:53;0.93;;;0.63;;
51332;SDS011;37417;48.118;11.734;2023-05-07T09:46:40;0.75;;;0.63;;
51332;SDS011;37417;48.118;11.734;2023-05-07T09:49:29;0.90;;;0.80;;
51332;SDS011;37417;48.118;11.734;2023-05-07T09:52:17;0.82;;;0.70;;
51332;SDS011;37417;48.118;11.734;2023-05-07T09:55:04;2.13;;;0.60;;
51332;SDS011;37417;48.118;11.734;2023-05-07T09:57:51;0.50;;;0.50;;
51332;SDS011;37417;48.118;11.734;2023-05-07T10:00:39;1.60;;;0.73;;
51332;SDS011;37417;48.118;11.734;2023-05-07T10:03:26;1.73;;;1.35;;
51332;SDS011;37417;48.118;11.734;2023-05-07T10:06:13;1.83;;;0.65;;
51332;SDS011;37417;48.118;11.734;2023-05-07T10:09:00;2.50;;;0.57;;
51332;SDS011;37417;48.118;11.734;2023-05-07T10:11:45;0.88;;;0.70;;
51332;SDS011;37417;48.118;11.734;2023-05-07T10:14:33;1.95;;;0.75;;
51332;SDS011;37417;48.118;11.734;2023-05-07T10:17:20;0.70;;;0.60;;
51332;SDS011;37417;48.118;11.734;2023-05-07T10:20:06;0.93;;;0.68;;
51332;SDS011;37417;48.118;11.734;2023-05-07T10:22:52;0.55;;;0.50;;
51332;SDS011;37417;48.118;11.734;2023-05-07T10:25:41;1.05;;;0.65;;
51332;SDS011;37417;48.118;11.734;2023-05-07T10:28:26;0.57;;;0.35;;
51332;SDS011;37417;48.118;11.734;2023-05-07T10:31:17;1.05;;;0.70;;
51332;SDS011;37417;48.118;11.734;2023-05-07T10:34:26;0.57;;;0.47;;
51332;SDS011;37417;48.118;11.734;2023-05-07T10:37:15;1.10;;;0.43;;
51332;SDS011;37417;48.118;11.734;2023-05-07T10:40:01;0.50;;;0.50;;
51332;SDS011;37417;48.118;11.734;2023-05-07T10:43:01;0.45;;;0.45;;
51332;SDS011;37417;48.118;11.734;2023-05-07T10:52:10;0.30;;;0.30;;
51332;SDS011;37417;48.118;11.734;2023-05-07T11:01:11;0.98;;;0.88;;
51332;SDS011;37417;48.118;11.734;2023-05-07T11:07:29;0.40;;;0.40;;
51332;SDS011;37417;48.118;11.734;2023-05-07T11:10:15;0.85;;;0.60;;
51332;SDS011;37417;48.118;11.734;2023-05-07T11:13:01;1.15;;;0.68;;
51332;SDS011;37417;48.118;11.734;2023-05-07T11:15:47;0.60;;;0.60;;
51332;SDS011;37417;48.118;11.734;2023-05-07T11:18:47;0.40;;;0.40;;
51332;SDS011;37417;48.118;11.734;2023-05-07T11:21:38;1.00;;;0.90;;
51332;SDS011;37417;48.118;11.734;2023-05-07T11:24:25;0.63;;;0.63;;
51332;SDS011;37417;48.118;11.734;2023-05-07T11:27:11;1.20;;;0.73;;
51332;SDS011;37417;48.118;11.734;2023-05-07T11:29:57;0.68;;;0.68;;
51332;SDS011;37417;48.118;11.734;2023-05-07T11:32:44;0.73;;;0.73;;
51332;SDS011;37417;48.118;11.734;2023-05-07T11:35:33;1.67;;;0.75;;
51332;SDS011;37417;48.118;11.734;2023-05-07T11:38:19;1.35;;;0.85;;
51332;SDS011;37417;48.118;11.734;2023-05-07T11:41:05;0.60;;;0.60;;
51332;SDS011;37417;48.118;11.734;2023-05-07T11:43:57;1.17;;;0.60;;
51332;SDS011;37417;48.118;11.734;2023-05-07T11:46:44;0.60;;;0.60;;
51332;SDS011;37417;48.118;11.734;2023-05-07T11:49:30;1.30;;;0.80;;
51332;SDS011;37417;48.118;11.734;2023-05-07T11:52:16;1.38;;;1.02;;
51332;SDS011;37417;48.118;11.734;2023-05-07T11:55:03;1.50;;;1.10;;
51332;SDS011;37417;48.118;11.734;2023-05-07T11:57:49;0.88;;;0.77;;
51332;SDS011;37417;48.118;11.734;2023-05-07T12:00:35;1.35;;;0.95;;
51332;SDS011;37417;48.118;11.734;2023-05-07T12:03:21;1.73;;;1.02;;
51332;SDS011;37417;48.118;11.734;2023-05-07T12:06:06;0.70;;;0.70;;
51332;SDS011;37417;48.118;11.734;2023-05-07T12:08:52;3.05;;;0.82;;
51332;SDS011;37417;48.118;11.734;2023-05-07T12:11:38;0.93;;;0.80;;
51332;SDS011;37417;48.118;11.734;2023-05-07T12:14:27;0.68;;;0.68;;
51332;SDS011;37417;48.118;11.734;2023-05-07T12:17:14;0.80;;;0.73;;
51332;SDS011;37417;48.118;11.734;2023-05-07T12:20:00;1.02;;;0.70;;
51332;SDS011;37417;48.118;11.734;2023-05-07T12:22:46;1.30;;;0.85;;
51332;SDS011;37417;48.118;11.734;2023-05-07T12:25:39;2.45;;;1.40;;
51332;SDS011;37417;48.118;11.734;2023-05-07T12:28:35;1.15;;;1.00;;
51332;SDS011;37417;48.118;11.734;2023-05-07T12:31:22;3.10;;;0.75;;
51332;SDS011;37417;48.118;11.734;2023-05-07T12:34:11;2.70;;;1.27;;
51332;SDS011;37417;48.118;11.734;2023-05-07T12:36:57;1.23;;;0.82;;
51332;SDS011;37417;48.118;11.734;2023-05-07T12:39:49;1.20;;;0.75;;
51332;SDS011;37417;48.118;11.734;2023-05-07T12:42:36;1.75;;;0.70;;
51332;SDS011;37417;48.118;11.734;2023-05-07T12:45:22;1.20;;;0.90;;
51332;SDS011;37417;48.118;11.734;2023-05-07T12:48:09;1.30;;;1.02;;
51332;SDS011;37417;48.118;11.734;2023-05-07T12:50:56;1.10;;;1.02;;
51332;SDS011;37417;48.118;11.734;2023-05-07T12:53:42;0.65;;;0.60;;
51332;SDS011;37417;48.118;11.734;2023-05-07T12:56:30;1.02;;;0.70;;
51332;SDS011;37417;48.118;11.734;2023-05-07T12:59:16;0.60;;;0.55;;
51332;SDS011;37417;48.118;11.734;2023-05-07T13:02:02;0.47;;;0.47;;
51332;SDS011;37417;48.118;11.734;2023-05-07T13:04:48;0.82;;;0.60;;
51332;SDS011;37417;48.118;11.734;2023-05-07T13:07:33;0.98;;;0.90;;
51332;SDS011;37417;48.118;11.734;2023-05-07T13:10:19;1.55;;;1.02;;
51332;SDS011;37417;48.118;11.734;2023-05-07T13:13:05;0.70;;;0.63;;
51332;SDS011;37417;48.118;11.734;2023-05-07T13:15:51;0.50;;;0.50;;
51332;SDS011;37417;48.118;11.734;2023-05-07T13:18:38;0.80;;;0.70;;
51332;SDS011;37417;48.118;11.734;2023-05-07T13:21:24;2.58;;;0.85;;
51332;SDS011;37417;48.118;11.734;2023-05-07T13:24:12;0.50;;;0.50;;
51332;SDS011;37417;48.118;11.734;2023-05-07T13:26:57;0.43;;;0.43;;
51332;SDS011;37417;48.118;11.734;2023-05-07T13:29:43;0.65;;;0.60;;
51332;SDS011;37417;48.118;11.734;2023-05-07T13:32:29;0.68;;;0.68;;
51332;SDS011;37417;48.118;11.734;2023-05-07T13:35:15;2.25;;;0.70;;
51332;SDS011;37417;48.118;11.734;2023-05-07T13:38:01;0.95;;;0.50;;
51332;SDS011;37417;48.118;11.734;2023-05-07T13:40:47;0.40;;;0.40;;
51332;SDS011;37417;48.118;11.734;2023-05-07T13:43:33;0.20;;;0.20;;
51332;SDS011;37417;48.118;11.734;2023-05-07T13:46:18;0.55;;;0.55;;
51332;SDS011;37417;48.118;11.734;2023-05-07T13:49:04;1.25;;;0.52;;
51332;SDS011;37417;48.118;11.734;2023-05-07T13:51:50;1.00;;;0.90;;
51332;SDS011;37417;48.118;11.734;2023-05-07T13:54:35;0.75;;;0.75;;
51332;SDS011;37417;48.118;11.734;2023-05-07T13:57:21;13.65;;;9.18;;
51332;SDS011;37417;48.118;11.734;2023-05-07T14:00:07;31.83;;;24.20;;
51332;SDS011;37417;48.118;11.734;2023-05-07T14:02:54;25.15;;;16.30;;
51332;SDS011;37417;48.118;11.734;2023-05-07T14:05:40;15.57;;;5.15;;
51332;SDS011;37417;48.118;11.734;2023-05-07T14:08:26;12.70;;;6.57;;
51332;SDS011;37417;48.118;11.734;2023-05-07T14:11:11;15.70;;;7.95;;
51332;SDS011;37417;48.118;11.734;2023-05-07T14:13:57;3.38;;;1.88;;
51332;SDS011;37417;48.118;11.734;2023-05-07T14:16:43;2.42;;;1.63;;
51332;SDS011;37417;48.118;11.734;2023-05-07T14:19:30;7.63;;;4.78;;
51332;SDS011;37417;48.118;11.734;2023-05-07T14:22:15;6.93;;;2.85;;
51332;SDS011;37417;48.118;11.734;2023-05-07T14:25:01;2.97;;;1.52;;
51332;SDS011;37417;48.118;11.734;2023-05-07T14:27:47;1.27;;;1.08;;
51332;SDS011;37417;48.118;11.734;2023-05-07T14:30:32;1.13;;;1.00;;
51332;SDS011;37417;48.118;11.734;2023-05-07T14:33:18;2.42;;;1.05;;
51332;SDS011;37417;48.118;11.734;2023-05-07T14:36:04;3.03;;;2.47;;
51332;SDS011;37417;48.118;11.734;2023-05-07T14:38:50;1.75;;;1.27;;
51332;SDS011;37417;48.118;11.734;2023-05-07T14:41:35;2.55;;;1.10;;
51332;SDS011;37417;48.118;11.734;2023-05-07T14:44:21;1.08;;;0.90;;
51332;SDS011;37417;48.118;11.734;2023-05-07T14:47:07;0.60;;;0.55;;
51332;SDS011;37417;48.118;11.734;2023-05-07T14:49:53;0.93;;;0.82;;
51332;SDS011;37417;48.118;11.734;2023-05-07T14:52:39;3.20;;;1.20;;
51332;SDS011;37417;48.118;11.734;2023-05-07T14:55:25;0.60;;;0.60;;
51332;SDS011;37417;48.118;11.734;2023-05-07T14:58:11;1.60;;;1.25;;
51332;SDS011;37417;48.118;11.734;2023-05-07T15:00:56;0.85;;;0.85;;
51332;SDS011;37417;48.118;11.734;2023-05-07T15:03:42;0.80;;;0.80;;
51332;SDS011;37417;48.118;11.734;2023-05-07T15:06:28;1.35;;;0.70;;
51332;SDS011;37417;48.118;11.734;2023-05-07T15:09:14;1.30;;;0.77;;
51332;SDS011;37417;48.118;11.734;2023-05-07T15:12:00;0.85;;;0.80;;
51332;SDS011;37417;48.118;11.734;2023-05-07T15:14:47;1.27;;;0.73;;
51332;SDS011;37417;48.118;11.734;2023-05-07T15:17:33;0.70;;;0.70;;
51332;SDS011;37417;48.118;11.734;2023-05-07T15:20:19;0.57;;;0.52;;
51332;SDS011;37417;48.118;11.734;2023-05-07T15:23:05;0.75;;;0.57;;
51332;SDS011;37417;48.118;11.734;2023-05-07T15:25:54;0.52;;;0.50;;
51332;SDS011;37417;48.118;11.734;2023-05-07T15:28:40;0.85;;;0.55;;
51332;SDS011;37417;48.118;11.734;2023-05-07T15:31:26;0.60;;;0.60;;
51332;SDS011;37417;48.118;11.734;2023-05-07T15:34:12;0.30;;;0.30;;
51332;SDS011;37417;48.118;11.734;2023-05-07T15:37:00;1.35;;;1.02;;
51332;SDS011;37417;48.118;11.734;2023-05-07T15:39:45;0.55;;;0.55;;
51332;SDS011;37417;48.118;11.734;2023-05-07T15:42:31;0.63;;;0.63;;
51332;SDS011;37417;48.118;11.734;2023-05-07T15:45:17;2.60;;;0.80;;
51332;SDS011;37417;48.118;11.734;2023-05-07T15:48:03;0.73;;;0.70;;
51332;SDS011;37417;48.118;11.734;2023-05-07T15:50:49;0.63;;;0.57;;
51332;SDS011;37417;48.118;11.734;2023-05-07T15:53:34;1.10;;;0.75;;
51332;SDS011;37417;48.118;11.734;2023-05-07T15:56:21;0.47;;;0.45;;
51332;SDS011;37417;48.118;11.734;2023-05-07T15:59:07;1.50;;;1.40;;
51332;SDS011;37417;48.118;11.734;2023-05-07T16:01:54;0.80;;;0.80;;
51332;SDS011;37417;48.118;11.734;2023-05-07T16:04:40;1.08;;;0.77;;
51332;SDS011;37417;48.118;11.734;2023-05-07T16:07:26;1.33;;;1.23;;
51332;SDS011;37417;48.118;11.734;2023-05-07T16:10:12;0.60;;;0.50;;
51332;SDS011;37417;48.118;11.734;2023-05-07T16:12:57;2.78;;;1.33;;
51332;SDS011;37417;48.118;11.734;2023-05-07T16:15:43;0.88;;;0.60;;
51332;SDS011;37417;48.118;11.734;2023-05-07T16:18:32;2.35;;;0.63;;
51332;SDS011;37417;48.118;11.734;2023-05-07T16:21:18;0.65;;;0.65;;
51332;SDS011;37417;48.118;11.734;2023-05-07T16:24:04;1.27;;;0.30;;
51332;SDS011;37417;48.118;11.734;2023-05-07T16:26:50;0.38;;;0.38;;
51332;SDS011;37417;48.118;11.734;2023-05-07T16:29:36;0.40;;;0.40;;
51332;SDS011;37417;48.118;11.734;2023-05-07T16:32:21;0.65;;;0.65;;
51332;SDS011;37417;48.118;11.734;2023-05-07T16:35:07;1.63;;;0.60;;
51332;SDS011;37417;48.118;11.734;2023-05-07T16:37:53;1.58;;;0.75;;
51332;SDS011;37417;48.118;11.734;2023-05-07T16:40:39;1.60;;;0.95;;
51332;SDS011;37417;48.118;11.734;2023-05-07T16:43:25;0.73;;;0.60;;
51332;SDS011;37417;48.118;11.734;2023-05-07T16:46:10;0.38;;;0.30;;